sensor_id;sensor_type;location;lat;lon;timestamp;temperature;humidity
8103;DHT22;4094;49.948;11.574;2023-02-28T00:01:58;3.20;53.50
8103;DHT22;4094;49.948;11.574;2023-02-28T00:04:28;3.20;53.50
8103;DHT22;4094;49.948;11.574;2023-02-28T00:06:57;3.20;53.60
8103;DHT22;4094;49.948;11.574;2023-02-28T00:09:25;3.10;53.50
8103;DHT22;4094;49.948;11.574;2023-02-28T00:11:54;3.10;53.50
8103;DHT22;4094;49.948;11.574;2023-02-28T00:14:23;3.10;53.50
8103;DHT22;4094;49.948;11.574;2023-02-28T00:16:53;3.10;53.50
8103;DHT22;4094;49.948;11.574;2023-02-28T00:19:22;3.10;53.50
8103;DHT22;4094;49.948;11.574;2023-02-28T00:21:51;3.10;53.50
8103;DHT22;4094;49.948;11.574;2023-02-28T00:24:20;3.10;53.50
8103;DHT22;4094;49.948;11.574;2023-02-28T00:26:49;3.10;53.50
8103;DHT22;4094;49.948;11.574;2023-02-28T00:29:18;3.00;53.50
8103;DHT22;4094;49.948;11.574;2023-02-28T00:31:47;3.00;53.50
8103;DHT22;4094;49.948;11.574;2023-02-28T00:34:17;3.00;53.60
8103;DHT22;4094;49.948;11.574;2023-02-28T00:36:47;3.00;53.60
8103;DHT22;4094;49.948;11.574;2023-02-28T00:39:17;3.00;53.70
8103;DHT22;4094;49.948;11.574;2023-02-28T00:41:46;3.00;53.70
8103;DHT22;4094;49.948;11.574;2023-02-28T00:44:15;3.00;53.80
8103;DHT22;4094;49.948;11.574;2023-02-28T00:46:44;2.90;53.80
8103;DHT22;4094;49.948;11.574;2023-02-28T00:49:13;2.90;53.90
8103;DHT22;4094;49.948;11.574;2023-02-28T00:51:43;2.90;54.00
8103;DHT22;4094;49.948;11.574;2023-02-28T00:54:12;2.90;54.20
8103;DHT22;4094;49.948;11.574;2023-02-28T00:56:41;2.90;54.20
8103;DHT22;4094;49.948;11.574;2023-02-28T00:59:10;2.90;54.10
8103;DHT22;4094;49.948;11.574;2023-02-28T01:01:39;2.90;54.20
8103;DHT22;4094;49.948;11.574;2023-02-28T01:04:08;2.90;54.30
8103;DHT22;4094;49.948;11.574;2023-02-28T01:06:38;2.90;54.30
8103;DHT22;4094;49.948;11.574;2023-02-28T01:09:12;2.80;54.40
8103;DHT22;4094;49.948;11.574;2023-02-28T01:11:43;2.90;54.50
8103;DHT22;4094;49.948;11.574;2023-02-28T01:14:13;2.80;54.50
8103;DHT22;4094;49.948;11.574;2023-02-28T01:16:42;2.80;54.50
8103;DHT22;4094;49.948;11.574;2023-02-28T01:19:11;2.80;54.50
8103;DHT22;4094;49.948;11.574;2023-02-28T01:21:41;2.80;54.60
8103;DHT22;4094;49.948;11.574;2023-02-28T01:24:09;2.80;54.60
8103;DHT22;4094;49.948;11.574;2023-02-28T01:26:40;2.80;54.70
8103;DHT22;4094;49.948;11.574;2023-02-28T01:29:09;2.80;54.70
8103;DHT22;4094;49.948;11.574;2023-02-28T01:31:38;2.80;54.70
8103;DHT22;4094;49.948;11.574;2023-02-28T01:34:08;2.80;54.70
8103;DHT22;4094;49.948;11.574;2023-02-28T01:36:37;2.80;54.70
8103;DHT22;4094;49.948;11.574;2023-02-28T01:39:06;2.80;54.70
8103;DHT22;4094;49.948;11.574;2023-02-28T01:41:35;2.80;54.70
8103;DHT22;4094;49.948;11.574;2023-02-28T01:44:07;2.80;54.70
8103;DHT22;4094;49.948;11.574;2023-02-28T01:46:56;2.80;54.80
8103;DHT22;4094;49.948;11.574;2023-02-28T01:49:25;2.80;54.70
8103;DHT22;4094;49.948;11.574;2023-02-28T01:51:55;2.80;54.70
8103;DHT22;4094;49.948;11.574;2023-02-28T01:54:28;2.70;54.70
8103;DHT22;4094;49.948;11.574;2023-02-28T01:57:01;2.70;54.80
8103;DHT22;4094;49.948;11.574;2023-02-28T01:59:37;2.70;54.90
8103;DHT22;4094;49.948;11.574;2023-02-28T02:02:08;2.70;55.00
8103;DHT22;4094;49.948;11.574;2023-02-28T02:04:40;2.70;55.00
8103;DHT22;4094;49.948;11.574;2023-02-28T02:07:11;2.60;55.00
8103;DHT22;4094;49.948;11.574;2023-02-28T02:09:45;2.60;55.10
8103;DHT22;4094;49.948;11.574;2023-02-28T02:12:21;2.60;55.10
8103;DHT22;4094;49.948;11.574;2023-02-28T02:15:01;2.60;55.20
8103;DHT22;4094;49.948;11.574;2023-02-28T02:17:37;2.60;55.20
8103;DHT22;4094;49.948;11.574;2023-02-28T02:32:28;2.40;55.40
8103;DHT22;4094;49.948;11.574;2023-02-28T02:35:12;2.40;55.50
8103;DHT22;4094;49.948;11.574;2023-02-28T02:37:47;2.40;55.40
8103;DHT22;4094;49.948;11.574;2023-02-28T02:40:20;2.40;55.50
8103;DHT22;4094;49.948;11.574;2023-02-28T02:42:52;2.40;55.50
8103;DHT22;4094;49.948;11.574;2023-02-28T02:45:27;2.40;55.60
8103;DHT22;4094;49.948;11.574;2023-02-28T02:47:59;2.30;55.50
8103;DHT22;4094;49.948;11.574;2023-02-28T02:50:34;2.30;55.60
8103;DHT22;4094;49.948;11.574;2023-02-28T02:53:07;2.30;55.70
8103;DHT22;4094;49.948;11.574;2023-02-28T02:55:42;2.30;55.70
8103;DHT22;4094;49.948;11.574;2023-02-28T02:58:15;2.30;55.80
8103;DHT22;4094;49.948;11.574;2023-02-28T03:00:48;2.30;55.80
8103;DHT22;4094;49.948;11.574;2023-02-28T03:03:19;2.20;55.80
8103;DHT22;4094;49.948;11.574;2023-02-28T03:05:59;2.20;55.80
8103;DHT22;4094;49.948;11.574;2023-02-28T03:08:35;2.20;55.90
8103;DHT22;4094;49.948;11.574;2023-02-28T03:11:07;2.20;56.00
8103;DHT22;4094;49.948;11.574;2023-02-28T03:13:54;2.20;56.10
8103;DHT22;4094;49.948;11.574;2023-02-28T03:16:34;2.10;56.20
8103;DHT22;4094;49.948;11.574;2023-02-28T03:19:23;2.10;56.20
8103;DHT22;4094;49.948;11.574;2023-02-28T03:22:08;2.10;56.20
8103;DHT22;4094;49.948;11.574;2023-02-28T03:24:48;2.10;56.10
8103;DHT22;4094;49.948;11.574;2023-02-28T03:27:23;2.10;56.20
8103;DHT22;4094;49.948;11.574;2023-02-28T03:29:59;2.10;56.20
8103;DHT22;4094;49.948;11.574;2023-02-28T03:32:34;2.10;56.10
8103;DHT22;4094;49.948;11.574;2023-02-28T03:35:09;2.10;56.10
8103;DHT22;4094;49.948;11.574;2023-02-28T03:37:42;2.00;56.10
8103;DHT22;4094;49.948;11.574;2023-02-28T03:40:15;2.00;56.10
8103;DHT22;4094;49.948;11.574;2023-02-28T03:42:47;2.00;56.20
8103;DHT22;4094;49.948;11.574;2023-02-28T03:45:19;2.00;56.30
8103;DHT22;4094;49.948;11.574;2023-02-28T03:47:53;1.90;56.30
8103;DHT22;4094;49.948;11.574;2023-02-28T03:50:23;1.90;56.40
8103;DHT22;4094;49.948;11.574;2023-02-28T03:52:58;1.90;56.40
8103;DHT22;4094;49.948;11.574;2023-02-28T03:55:37;1.90;56.50
8103;DHT22;4094;49.948;11.574;2023-02-28T03:58:12;1.90;56.50
8103;DHT22;4094;49.948;11.574;2023-02-28T04:00:46;1.90;56.50
8103;DHT22;4094;49.948;11.574;2023-02-28T04:03:15;1.90;56.50
8103;DHT22;4094;49.948;11.574;2023-02-28T04:05:48;1.90;56.40
8103;DHT22;4094;49.948;11.574;2023-02-28T04:08:20;1.90;56.40
8103;DHT22;4094;49.948;11.574;2023-02-28T04:10:55;1.90;56.30
8103;DHT22;4094;49.948;11.574;2023-02-28T04:13:24;1.90;56.30
8103;DHT22;4094;49.948;11.574;2023-02-28T04:15:53;1.90;56.30
8103;DHT22;4094;49.948;11.574;2023-02-28T04:18:23;1.90;56.30
8103;DHT22;4094;49.948;11.574;2023-02-28T04:20:52;1.90;56.40
8103;DHT22;4094;49.948;11.574;2023-02-28T04:23:22;1.90;56.40
8103;DHT22;4094;49.948;11.574;2023-02-28T04:25:54;1.90;56.50
8103;DHT22;4094;49.948;11.574;2023-02-28T04:28:23;1.90;56.60
8103;DHT22;4094;49.948;11.574;2023-02-28T04:30:56;1.90;56.60
8103;DHT22;4094;49.948;11.574;2023-02-28T04:33:26;1.90;56.70
8103;DHT22;4094;49.948;11.574;2023-02-28T04:36:00;2.00;57.30
8103;DHT22;4094;49.948;11.574;2023-02-28T04:38:32;2.00;56.80
8103;DHT22;4094;49.948;11.574;2023-02-28T04:41:02;2.00;56.80
8103;DHT22;4094;49.948;11.574;2023-02-28T04:43:32;2.10;56.70
8103;DHT22;4094;49.948;11.574;2023-02-28T04:46:02;2.10;56.60
8103;DHT22;4094;49.948;11.574;2023-02-28T04:48:33;2.20;56.60
8103;DHT22;4094;49.948;11.574;2023-02-28T04:51:04;2.20;56.60
8103;DHT22;4094;49.948;11.574;2023-02-28T04:53:34;2.30;56.60
8103;DHT22;4094;49.948;11.574;2023-02-28T04:56:05;2.30;56.50
8103;DHT22;4094;49.948;11.574;2023-02-28T04:58:35;2.30;56.40
8103;DHT22;4094;49.948;11.574;2023-02-28T05:01:05;2.30;56.60
8103;DHT22;4094;49.948;11.574;2023-02-28T05:03:40;2.40;56.40
8103;DHT22;4094;49.948;11.574;2023-02-28T05:06:09;2.40;56.40
8103;DHT22;4094;49.948;11.574;2023-02-28T05:08:40;2.40;56.40
8103;DHT22;4094;49.948;11.574;2023-02-28T05:11:14;2.40;56.40
8103;DHT22;4094;49.948;11.574;2023-02-28T05:13:44;2.40;56.40
8103;DHT22;4094;49.948;11.574;2023-02-28T05:16:13;2.50;56.30
8103;DHT22;4094;49.948;11.574;2023-02-28T05:18:43;2.50;56.30
8103;DHT22;4094;49.948;11.574;2023-02-28T05:21:24;2.50;56.30
8103;DHT22;4094;49.948;11.574;2023-02-28T05:23:55;2.50;56.40
8103;DHT22;4094;49.948;11.574;2023-02-28T05:26:25;2.50;56.30
8103;DHT22;4094;49.948;11.574;2023-02-28T05:28:56;2.50;56.30
8103;DHT22;4094;49.948;11.574;2023-02-28T05:31:25;2.50;56.30
8103;DHT22;4094;49.948;11.574;2023-02-28T05:33:55;2.60;56.30
8103;DHT22;4094;49.948;11.574;2023-02-28T05:36:24;2.60;56.20
8103;DHT22;4094;49.948;11.574;2023-02-28T05:38:55;2.60;56.70
8103;DHT22;4094;49.948;11.574;2023-02-28T05:41:24;2.70;56.30
8103;DHT22;4094;49.948;11.574;2023-02-28T05:43:54;2.70;56.30
8103;DHT22;4094;49.948;11.574;2023-02-28T05:46:23;2.70;56.20
8103;DHT22;4094;49.948;11.574;2023-02-28T05:48:52;2.70;56.10
8103;DHT22;4094;49.948;11.574;2023-02-28T05:51:21;2.70;56.10
8103;DHT22;4094;49.948;11.574;2023-02-28T05:53:50;2.70;56.10
8103;DHT22;4094;49.948;11.574;2023-02-28T05:56:21;2.80;56.10
8103;DHT22;4094;49.948;11.574;2023-02-28T05:58:50;2.80;56.00
8103;DHT22;4094;49.948;11.574;2023-02-28T06:01:24;2.80;55.90
8103;DHT22;4094;49.948;11.574;2023-02-28T06:03:54;2.80;55.90
8103;DHT22;4094;49.948;11.574;2023-02-28T06:06:23;2.80;55.90
8103;DHT22;4094;49.948;11.574;2023-02-28T06:08:52;2.80;55.90
8103;DHT22;4094;49.948;11.574;2023-02-28T06:11:23;2.80;55.90
8103;DHT22;4094;49.948;11.574;2023-02-28T06:13:56;2.80;55.90
8103;DHT22;4094;49.948;11.574;2023-02-28T06:16:28;2.80;56.00
8103;DHT22;4094;49.948;11.574;2023-02-28T06:18:58;2.90;56.00
8103;DHT22;4094;49.948;11.574;2023-02-28T06:21:28;2.90;56.10
8103;DHT22;4094;49.948;11.574;2023-02-28T06:23:59;2.90;56.00
8103;DHT22;4094;49.948;11.574;2023-02-28T06:26:31;2.90;56.00
8103;DHT22;4094;49.948;11.574;2023-02-28T06:29:00;2.90;55.90
8103;DHT22;4094;49.948;11.574;2023-02-28T06:31:30;2.90;55.80
8103;DHT22;4094;49.948;11.574;2023-02-28T06:34:00;3.00;55.80
8103;DHT22;4094;49.948;11.574;2023-02-28T06:36:29;3.00;55.80
8103;DHT22;4094;49.948;11.574;2023-02-28T06:38:58;3.00;55.80
8103;DHT22;4094;49.948;11.574;2023-02-28T06:41:27;3.00;55.80
8103;DHT22;4094;49.948;11.574;2023-02-28T06:44:02;3.00;55.70
8103;DHT22;4094;49.948;11.574;2023-02-28T06:46:32;3.00;55.70
8103;DHT22;4094;49.948;11.574;2023-02-28T06:49:02;3.10;55.70
8103;DHT22;4094;49.948;11.574;2023-02-28T06:51:31;3.10;55.70
8103;DHT22;4094;49.948;11.574;2023-02-28T06:54:00;3.10;55.70
8103;DHT22;4094;49.948;11.574;2023-02-28T06:56:29;3.20;55.70
8103;DHT22;4094;49.948;11.574;2023-02-28T06:58:58;3.20;55.60
8103;DHT22;4094;49.948;11.574;2023-02-28T07:01:29;3.20;55.50
8103;DHT22;4094;49.948;11.574;2023-02-28T07:04:00;3.20;55.70
8103;DHT22;4094;49.948;11.574;2023-02-28T07:06:29;3.30;55.70
8103;DHT22;4094;49.948;11.574;2023-02-28T07:08:58;3.30;55.70
8103;DHT22;4094;49.948;11.574;2023-02-28T07:11:28;3.30;55.90
8103;DHT22;4094;49.948;11.574;2023-02-28T07:13:58;3.40;55.80
8103;DHT22;4094;49.948;11.574;2023-02-28T07:16:28;3.40;55.70
8103;DHT22;4094;49.948;11.574;2023-02-28T07:18:57;3.40;55.80
8103;DHT22;4094;49.948;11.574;2023-02-28T07:21:26;3.50;55.90
8103;DHT22;4094;49.948;11.574;2023-02-28T07:23:56;3.50;55.80
8103;DHT22;4094;49.948;11.574;2023-02-28T07:26:25;3.50;55.80
8103;DHT22;4094;49.948;11.574;2023-02-28T07:28:54;3.50;55.70
8103;DHT22;4094;49.948;11.574;2023-02-28T07:31:23;3.50;55.60
8103;DHT22;4094;49.948;11.574;2023-02-28T07:33:53;3.60;55.60
8103;DHT22;4094;49.948;11.574;2023-02-28T07:36:25;3.60;55.60
8103;DHT22;4094;49.948;11.574;2023-02-28T07:38:53;3.60;55.50
8103;DHT22;4094;49.948;11.574;2023-02-28T07:41:22;3.60;55.40
8103;DHT22;4094;49.948;11.574;2023-02-28T07:43:55;3.70;55.60
8103;DHT22;4094;49.948;11.574;2023-02-28T07:46:27;3.70;55.60
8103;DHT22;4094;49.948;11.574;2023-02-28T07:48:59;3.80;55.50
8103;DHT22;4094;49.948;11.574;2023-02-28T07:51:28;3.80;55.50
8103;DHT22;4094;49.948;11.574;2023-02-28T07:53:58;3.90;55.60
8103;DHT22;4094;49.948;11.574;2023-02-28T07:56:27;3.90;55.60
8103;DHT22;4094;49.948;11.574;2023-02-28T07:58:57;3.90;55.60
8103;DHT22;4094;49.948;11.574;2023-02-28T08:01:26;4.00;55.50
8103;DHT22;4094;49.948;11.574;2023-02-28T08:03:56;4.10;55.50
8103;DHT22;4094;49.948;11.574;2023-02-28T08:06:26;4.10;55.50
8103;DHT22;4094;49.948;11.574;2023-02-28T08:08:56;4.20;55.40
8103;DHT22;4094;49.948;11.574;2023-02-28T08:11:26;4.20;55.40
8103;DHT22;4094;49.948;11.574;2023-02-28T08:13:55;4.30;55.50
8103;DHT22;4094;49.948;11.574;2023-02-28T08:16:24;4.40;55.40
8103;DHT22;4094;49.948;11.574;2023-02-28T08:18:54;4.50;55.20
8103;DHT22;4094;49.948;11.574;2023-02-28T08:21:23;4.60;55.20
8103;DHT22;4094;49.948;11.574;2023-02-28T08:23:54;4.70;55.30
8103;DHT22;4094;49.948;11.574;2023-02-28T08:26:24;4.90;55.30
8103;DHT22;4094;49.948;11.574;2023-02-28T08:28:53;5.10;55.50
8103;DHT22;4094;49.948;11.574;2023-02-28T08:31:24;5.60;56.00
8103;DHT22;4094;49.948;11.574;2023-02-28T08:33:54;5.90;55.00
8103;DHT22;4094;49.948;11.574;2023-02-28T08:36:26;6.30;54.60
8103;DHT22;4094;49.948;11.574;2023-02-28T08:38:58;6.70;53.90
8103;DHT22;4094;49.948;11.574;2023-02-28T08:41:27;7.00;53.40
8103;DHT22;4094;49.948;11.574;2023-02-28T08:43:57;7.20;52.60
8103;DHT22;4094;49.948;11.574;2023-02-28T08:46:26;7.40;51.60
8103;DHT22;4094;49.948;11.574;2023-02-28T08:48:56;7.50;50.70
8103;DHT22;4094;49.948;11.574;2023-02-28T08:51:28;7.40;50.70
8103;DHT22;4094;49.948;11.574;2023-02-28T08:54:00;7.40;49.80
8103;DHT22;4094;49.948;11.574;2023-02-28T08:56:29;7.40;49.80
8103;DHT22;4094;49.948;11.574;2023-02-28T08:58:58;7.30;49.80
8103;DHT22;4094;49.948;11.574;2023-02-28T09:01:28;7.20;49.80
8103;DHT22;4094;49.948;11.574;2023-02-28T09:03:59;7.20;49.60
8103;DHT22;4094;49.948;11.574;2023-02-28T09:06:30;7.20;49.90
8103;DHT22;4094;49.948;11.574;2023-02-28T09:09:02;7.10;49.20
8103;DHT22;4094;49.948;11.574;2023-02-28T09:11:34;7.00;49.40
8103;DHT22;4094;49.948;11.574;2023-02-28T09:14:04;7.00;49.40
8103;DHT22;4094;49.948;11.574;2023-02-28T09:16:34;6.90;49.30
8103;DHT22;4094;49.948;11.574;2023-02-28T09:19:04;6.80;49.30
8103;DHT22;4094;49.948;11.574;2023-02-28T09:21:33;6.80;49.50
8103;DHT22;4094;49.948;11.574;2023-02-28T09:24:04;6.60;49.60
8103;DHT22;4094;49.948;11.574;2023-02-28T09:26:34;6.60;49.50
8103;DHT22;4094;49.948;11.574;2023-02-28T09:29:10;6.50;49.20
8103;DHT22;4094;49.948;11.574;2023-02-28T09:31:40;6.40;49.70
8103;DHT22;4094;49.948;11.574;2023-02-28T09:34:10;6.40;50.10
8103;DHT22;4094;49.948;11.574;2023-02-28T09:36:39;6.40;50.40
8103;DHT22;4094;49.948;11.574;2023-02-28T09:39:14;6.50;50.40
8103;DHT22;4094;49.948;11.574;2023-02-28T09:41:46;6.50;50.20
8103;DHT22;4094;49.948;11.574;2023-02-28T09:44:24;6.60;50.00
8103;DHT22;4094;49.948;11.574;2023-02-28T09:46:59;6.60;50.00
8103;DHT22;4094;49.948;11.574;2023-02-28T09:49:35;6.60;49.70
8103;DHT22;4094;49.948;11.574;2023-02-28T09:52:09;6.60;49.70
8103;DHT22;4094;49.948;11.574;2023-02-28T09:54:40;6.70;50.00
8103;DHT22;4094;49.948;11.574;2023-02-28T09:57:15;6.80;50.50
8103;DHT22;4094;49.948;11.574;2023-02-28T10:00:05;6.90;50.10
8103;DHT22;4094;49.948;11.574;2023-02-28T10:05:36;7.00;49.30
8103;DHT22;4094;49.948;11.574;2023-02-28T10:08:13;7.10;49.30
8103;DHT22;4094;49.948;11.574;2023-02-28T10:10:47;7.10;49.60
8103;DHT22;4094;49.948;11.574;2023-02-28T10:13:22;7.20;49.20
8103;DHT22;4094;49.948;11.574;2023-02-28T10:15:56;7.40;49.70
8103;DHT22;4094;49.948;11.574;2023-02-28T10:18:38;7.70;49.90
8103;DHT22;4094;49.948;11.574;2023-02-28T10:21:18;8.10;49.40
8103;DHT22;4094;49.948;11.574;2023-02-28T10:23:52;8.40;48.90
8103;DHT22;4094;49.948;11.574;2023-02-28T10:26:28;8.70;48.60
8103;DHT22;4094;49.948;11.574;2023-02-28T10:29:00;9.00;47.30
8103;DHT22;4094;49.948;11.574;2023-02-28T10:31:30;9.40;47.70
8103;DHT22;4094;49.948;11.574;2023-02-28T10:33:59;9.60;47.00
8103;DHT22;4094;49.948;11.574;2023-02-28T10:36:29;9.80;47.00
8103;DHT22;4094;49.948;11.574;2023-02-28T10:39:00;10.00;46.30
8103;DHT22;4094;49.948;11.574;2023-02-28T10:41:31;10.10;46.20
8103;DHT22;4094;49.948;11.574;2023-02-28T10:44:15;10.20;45.80
8103;DHT22;4094;49.948;11.574;2023-02-28T10:46:47;10.40;45.70
8103;DHT22;4094;49.948;11.574;2023-02-28T10:49:20;10.90;45.70
8103;DHT22;4094;49.948;11.574;2023-02-28T10:51:52;11.30;45.90
8103;DHT22;4094;49.948;11.574;2023-02-28T10:54:26;11.90;45.60
8103;DHT22;4094;49.948;11.574;2023-02-28T10:57:15;12.30;44.10
8103;DHT22;4094;49.948;11.574;2023-02-28T10:59:46;12.70;43.20
8103;DHT22;4094;49.948;11.574;2023-02-28T11:02:33;13.00;42.90
8103;DHT22;4094;49.948;11.574;2023-02-28T11:05:23;13.10;41.80
8103;DHT22;4094;49.948;11.574;2023-02-28T11:07:53;13.20;42.00
8103;DHT22;4094;49.948;11.574;2023-02-28T11:10:26;13.40;42.00
8103;DHT22;4094;49.948;11.574;2023-02-28T11:12:58;13.60;41.60
8103;DHT22;4094;49.948;11.574;2023-02-28T11:15:29;13.70;41.40
8103;DHT22;4094;49.948;11.574;2023-02-28T11:18:01;13.90;40.70
8103;DHT22;4094;49.948;11.574;2023-02-28T11:20:32;14.10;39.20
8103;DHT22;4094;49.948;11.574;2023-02-28T11:23:04;14.30;39.60
8103;DHT22;4094;49.948;11.574;2023-02-28T11:25:36;14.40;39.80
8103;DHT22;4094;49.948;11.574;2023-02-28T11:28:25;14.50;39.40
8103;DHT22;4094;49.948;11.574;2023-02-28T11:31:08;14.70;38.40
8103;DHT22;4094;49.948;11.574;2023-02-28T11:33:45;14.80;38.30
8103;DHT22;4094;49.948;11.574;2023-02-28T11:36:19;15.00;38.70
8103;DHT22;4094;49.948;11.574;2023-02-28T11:38:54;15.20;38.50
8103;DHT22;4094;49.948;11.574;2023-02-28T11:41:45;15.40;38.20
8103;DHT22;4094;49.948;11.574;2023-02-28T11:44:31;15.60;37.40
8103;DHT22;4094;49.948;11.574;2023-02-28T11:47:08;15.70;36.30
8103;DHT22;4094;49.948;11.574;2023-02-28T11:49:46;15.90;36.50
8103;DHT22;4094;49.948;11.574;2023-02-28T11:52:21;16.10;36.60
8103;DHT22;4094;49.948;11.574;2023-02-28T11:55:02;16.20;36.20
8103;DHT22;4094;49.948;11.574;2023-02-28T11:57:44;16.30;36.10
8103;DHT22;4094;49.948;11.574;2023-02-28T12:00:30;16.40;35.90
8103;DHT22;4094;49.948;11.574;2023-02-28T12:03:15;16.60;35.50
8103;DHT22;4094;49.948;11.574;2023-02-28T12:05:48;16.80;35.40
8103;DHT22;4094;49.948;11.574;2023-02-28T12:08:29;16.90;35.10
8103;DHT22;4094;49.948;11.574;2023-02-28T12:11:09;17.10;35.20
8103;DHT22;4094;49.948;11.574;2023-02-28T12:13:48;17.40;34.90
8103;DHT22;4094;49.948;11.574;2023-02-28T12:16:30;17.50;34.30
8103;DHT22;4094;49.948;11.574;2023-02-28T12:19:21;17.70;33.70
8103;DHT22;4094;49.948;11.574;2023-02-28T12:22:03;17.70;33.00
8103;DHT22;4094;49.948;11.574;2023-02-28T12:25:21;17.60;33.50
8103;DHT22;4094;49.948;11.574;2023-02-28T12:27:51;17.70;34.10
8103;DHT22;4094;49.948;11.574;2023-02-28T12:30:25;17.80;33.80
8103;DHT22;4094;49.948;11.574;2023-02-28T12:33:02;18.00;33.80
8103;DHT22;4094;49.948;11.574;2023-02-28T12:35:34;18.40;34.00
8103;DHT22;4094;49.948;11.574;2023-02-28T12:38:12;18.90;34.00
8103;DHT22;4094;49.948;11.574;2023-02-28T12:40:45;19.50;32.30
8103;DHT22;4094;49.948;11.574;2023-02-28T12:43:17;20.10;31.90
8103;DHT22;4094;49.948;11.574;2023-02-28T12:45:51;20.60;31.70
8103;DHT22;4094;49.948;11.574;2023-02-28T12:48:27;21.10;31.30
8103;DHT22;4094;49.948;11.574;2023-02-28T12:50:58;21.60;30.00
8103;DHT22;4094;49.948;11.574;2023-02-28T12:53:39;21.70;29.60
8103;DHT22;4094;49.948;11.574;2023-02-28T12:56:16;21.70;29.20
8103;DHT22;4094;49.948;11.574;2023-02-28T12:58:49;21.60;29.00
8103;DHT22;4094;49.948;11.574;2023-02-28T13:01:42;21.30;28.30
8103;DHT22;4094;49.948;11.574;2023-02-28T13:04:36;20.90;29.30
8103;DHT22;4094;49.948;11.574;2023-02-28T13:07:22;20.50;29.10
8103;DHT22;4094;49.948;11.574;2023-02-28T13:09:59;20.20;29.40
8103;DHT22;4094;49.948;11.574;2023-02-28T13:12:28;19.90;29.70
8103;DHT22;4094;49.948;11.574;2023-02-28T13:15:05;19.60;29.20
8103;DHT22;4094;49.948;11.574;2023-02-28T13:17:39;19.20;29.20
8103;DHT22;4094;49.948;11.574;2023-02-28T13:20:17;18.60;29.20
8103;DHT22;4094;49.948;11.574;2023-02-28T13:22:49;18.10;29.50
8103;DHT22;4094;49.948;11.574;2023-02-28T13:25:50;17.50;29.70
8103;DHT22;4094;49.948;11.574;2023-02-28T13:34:49;15.70;31.30
8103;DHT22;4094;49.948;11.574;2023-02-28T13:37:42;15.30;31.80
8103;DHT22;4094;49.948;11.574;2023-02-28T13:40:29;14.80;32.10
8103;DHT22;4094;49.948;11.574;2023-02-28T13:43:08;14.50;33.00
8103;DHT22;4094;49.948;11.574;2023-02-28T13:45:37;14.10;33.00
8103;DHT22;4094;49.948;11.574;2023-02-28T13:48:18;13.60;33.00
8103;DHT22;4094;49.948;11.574;2023-02-28T13:50:48;13.20;33.40
8103;DHT22;4094;49.948;11.574;2023-02-28T13:53:38;12.90;34.00
8103;DHT22;4094;49.948;11.574;2023-02-28T13:56:23;12.60;34.20
8103;DHT22;4094;49.948;11.574;2023-02-28T13:58:58;12.20;34.60
8103;DHT22;4094;49.948;11.574;2023-02-28T14:01:41;11.90;35.10
8103;DHT22;4094;49.948;11.574;2023-02-28T14:07:20;11.40;35.60
8103;DHT22;4094;49.948;11.574;2023-02-28T14:09:57;11.20;36.00
8103;DHT22;4094;49.948;11.574;2023-02-28T14:12:53;11.00;36.00
8103;DHT22;4094;49.948;11.574;2023-02-28T14:15:45;10.90;36.40
8103;DHT22;4094;49.948;11.574;2023-02-28T14:18:28;10.70;36.40
8103;DHT22;4094;49.948;11.574;2023-02-28T14:21:03;10.50;36.70
8103;DHT22;4094;49.948;11.574;2023-02-28T14:24:10;10.40;36.90
8103;DHT22;4094;49.948;11.574;2023-02-28T14:27:15;10.30;37.90
8103;DHT22;4094;49.948;11.574;2023-02-28T14:30:03;10.20;38.00
8103;DHT22;4094;49.948;11.574;2023-02-28T14:32:40;10.10;37.90
8103;DHT22;4094;49.948;11.574;2023-02-28T14:35:20;10.10;37.90
8103;DHT22;4094;49.948;11.574;2023-02-28T14:37:51;10.00;38.10
8103;DHT22;4094;49.948;11.574;2023-02-28T14:40:27;9.90;38.60
8103;DHT22;4094;49.948;11.574;2023-02-28T14:43:02;9.90;38.40
8103;DHT22;4094;49.948;11.574;2023-02-28T14:45:36;9.80;38.60
8103;DHT22;4094;49.948;11.574;2023-02-28T14:48:09;9.70;38.50
8103;DHT22;4094;49.948;11.574;2023-02-28T14:50:48;9.70;38.80
8103;DHT22;4094;49.948;11.574;2023-02-28T14:53:20;9.70;38.80
8103;DHT22;4094;49.948;11.574;2023-02-28T14:55:50;9.60;38.70
8103;DHT22;4094;49.948;11.574;2023-02-28T14:58:26;9.60;38.70
8103;DHT22;4094;49.948;11.574;2023-02-28T15:00:58;9.50;38.90
8103;DHT22;4094;49.948;11.574;2023-02-28T15:03:32;9.50;38.70
8103;DHT22;4094;49.948;11.574;2023-02-28T15:06:03;9.40;39.10
8103;DHT22;4094;49.948;11.574;2023-02-28T15:08:33;9.40;39.10
8103;DHT22;4094;49.948;11.574;2023-02-28T15:11:06;9.30;39.10
8103;DHT22;4094;49.948;11.574;2023-02-28T15:13:40;9.30;39.30
8103;DHT22;4094;49.948;11.574;2023-02-28T15:16:15;9.30;39.30
8103;DHT22;4094;49.948;11.574;2023-02-28T15:18:47;9.30;39.70
8103;DHT22;4094;49.948;11.574;2023-02-28T15:21:19;9.20;39.70
8103;DHT22;4094;49.948;11.574;2023-02-28T15:23:52;9.20;39.40
8103;DHT22;4094;49.948;11.574;2023-02-28T15:26:26;9.10;39.50
8103;DHT22;4094;49.948;11.574;2023-02-28T15:29:01;9.10;40.30
8103;DHT22;4094;49.948;11.574;2023-02-28T15:31:32;9.00;40.00
8103;DHT22;4094;49.948;11.574;2023-02-28T15:34:22;9.00;40.00
8103;DHT22;4094;49.948;11.574;2023-02-28T15:37:00;8.90;40.20
8103;DHT22;4094;49.948;11.574;2023-02-28T15:39:29;8.90;40.30
8103;DHT22;4094;49.948;11.574;2023-02-28T15:42:17;8.80;40.10
8103;DHT22;4094;49.948;11.574;2023-02-28T15:44:49;8.80;40.50
8103;DHT22;4094;49.948;11.574;2023-02-28T15:47:20;8.70;40.40
8103;DHT22;4094;49.948;11.574;2023-02-28T15:49:52;8.70;40.50
8103;DHT22;4094;49.948;11.574;2023-02-28T15:52:27;8.70;41.70
8103;DHT22;4094;49.948;11.574;2023-02-28T15:55:08;8.70;41.10
8103;DHT22;4094;49.948;11.574;2023-02-28T15:57:39;8.60;41.00
8103;DHT22;4094;49.948;11.574;2023-02-28T16:00:13;8.60;40.90
8103;DHT22;4094;49.948;11.574;2023-02-28T16:02:43;8.60;41.00
8103;DHT22;4094;49.948;11.574;2023-02-28T16:05:22;8.60;41.00
8103;DHT22;4094;49.948;11.574;2023-02-28T16:07:57;8.60;41.20
8103;DHT22;4094;49.948;11.574;2023-02-28T16:10:28;8.60;41.20
8103;DHT22;4094;49.948;11.574;2023-02-28T16:12:58;8.60;41.20
8103;DHT22;4094;49.948;11.574;2023-02-28T16:15:34;8.60;41.10
8103;DHT22;4094;49.948;11.574;2023-02-28T16:18:10;8.50;41.30
8103;DHT22;4094;49.948;11.574;2023-02-28T16:20:40;8.50;41.30
8103;DHT22;4094;49.948;11.574;2023-02-28T16:23:12;8.50;41.30
8103;DHT22;4094;49.948;11.574;2023-02-28T16:25:42;8.50;41.40
8103;DHT22;4094;49.948;11.574;2023-02-28T16:28:18;8.40;42.00
8103;DHT22;4094;49.948;11.574;2023-02-28T16:30:51;8.40;41.70
8103;DHT22;4094;49.948;11.574;2023-02-28T16:33:20;8.40;41.80
8103;DHT22;4094;49.948;11.574;2023-02-28T16:35:49;8.30;41.70
8103;DHT22;4094;49.948;11.574;2023-02-28T16:38:19;8.30;41.80
8103;DHT22;4094;49.948;11.574;2023-02-28T16:40:50;8.30;42.00
8103;DHT22;4094;49.948;11.574;2023-02-28T16:43:23;8.20;42.70
8103;DHT22;4094;49.948;11.574;2023-02-28T16:45:56;8.20;42.10
8103;DHT22;4094;49.948;11.574;2023-02-28T16:48:28;8.10;42.10
8103;DHT22;4094;49.948;11.574;2023-02-28T16:50:58;8.10;42.00
8103;DHT22;4094;49.948;11.574;2023-02-28T16:53:27;8.10;42.10
8103;DHT22;4094;49.948;11.574;2023-02-28T16:55:56;8.10;42.20
8103;DHT22;4094;49.948;11.574;2023-02-28T16:58:25;8.00;42.20
8103;DHT22;4094;49.948;11.574;2023-02-28T17:00:56;8.00;42.30
8103;DHT22;4094;49.948;11.574;2023-02-28T17:03:27;7.90;42.40